NCAR-RAP Real-Time Weather Data

Output produced by METARs form (06 May 2021  16:21 UTC)
found at http://weather.rap.ucar.edu/surface/
 
KSTL 061551Z 29007KT 10SM -TSRA SCT070CB BKN090 OVC150 16/09 A3008 RMK AO2 LTG DSNT SW RAB34 TSB42 SLP182 OCNL LTGICCG W-N TS W-N MOV SE P0000 T01610089
KSTL 061451Z 26007KT 10SM SCT110 BKN200 18/08 A3008 RMK AO2 SLP181 60000 T01780078 58008
KSTL 061351Z 23009KT 10SM BKN070 BKN200 16/08 A3010 RMK AO2 RAB12E22 SLP187 P0000 T01610078
KSTL 061251Z 22013KT 10SM BKN090 15/08 A3011 RMK AO2 SLP190 VCSH SW-NW T01500078
KSTL 061151Z 22006KT 10SM SCT095 BKN130 BKN250 13/07 A3010 RMK AO2 SLP190 ACC SW-W T01330067 10144 20133 55005
KSTL 061051Z 18005KT 10SM BKN090 BKN110 OVC250 14/06 A3010 RMK AO2 SLP187 T01390061
KSTL 060951Z 20005KT 10SM BKN095 OVC250 13/07 A3011 RMK AO2 SLP191 T01330067
KSTL 060851Z 18004KT 10SM BKN095 BKN120 OVC250 14/07 A3012 RMK AO2 SLP194 T01390067 58007
KSTL 060751Z 18006KT 10SM BKN130 OVC250 14/07 A3013 RMK AO2 SLP197 T01440067
KSTL 060651Z 19003KT 10SM BKN110 OVC250 14/07 A3014 RMK AO2 SLP202 T01390067
KSTL 060551Z 16004KT 10SM FEW120 BKN250 13/07 A3014 RMK AO2 SLP203 T01330067 10189 20122 402060072 56005
KSTL 060451Z 14004KT 10SM BKN120 13/07 A3014 RMK AO2 SLP203 T01330072
KSTL 060351Z 09004KT 10SM SCT250 14/06 A3014 RMK AO2 SLP204 T01440056
KSTL 060251Z 00000KT 10SM FEW180 BKN250 16/06 A3015 RMK AO2 SLP209 T01560061 53008
KSTL 060151Z 00000KT 10SM BKN250 17/04 A3014 RMK AO2 SLP203 T01720044